Time;durP1;ratioP1;P1;durP2;ratioP2;P2;SDS_P1;SDS_P2;PMS_P1;PMS_P2;Temp;Humidity;BMP_temperature;BMP_pressure;BME280_temperature;BME280_humidity;BME280_pressure;Samples;Min_cycle;Max_cycle;Signal;HPM_P1;HPM_P2
2021/12/28 00:01:16;;;;;;;6.88;4.43;;;10.90;68.80;;;;;;4940815;28;20427;-55
2021/12/28 00:03:44;;;;;;;7.90;4.22;;;10.90;68.60;;;;;;4974782;28;20505;-56
2021/12/28 00:06:11;;;;;;;7.85;4.50;;;10.90;68.60;;;;;;4981722;28;20040;-55
2021/12/28 00:08:38;;;;;;;9.10;4.97;;;10.80;68.50;;;;;;4999925;28;20030;-57
2021/12/28 00:11:05;;;;;;;8.48;4.40;;;10.80;69.20;;;;;;5000681;28;20406;-56
2021/12/28 00:13:33;;;;;;;8.85;4.55;;;10.80;68.60;;;;;;4994933;28;20041;-56
2021/12/28 00:16:13;;;;;;;8.40;4.65;;;10.80;68.70;;;;;;4999808;28;20033;-54
2021/12/28 00:18:39;;;;;;;9.52;4.55;;;10.80;68.70;;;;;;4999242;28;20386;-56
2021/12/28 00:21:06;;;;;;;11.13;4.43;;;10.80;68.70;;;;;;5002347;28;20413;-54
2021/12/28 00:23:39;;;;;;;7.35;3.90;;;10.80;68.70;;;;;;4998662;28;20366;-56
2021/12/28 00:26:11;;;;;;;8.88;4.20;;;10.70;68.70;;;;;;5001028;28;20021;-56
2021/12/28 00:28:37;;;;;;;13.77;4.90;;;10.70;68.70;;;;;;5000421;28;20571;-55
2021/12/28 00:31:04;;;;;;;11.57;4.20;;;10.70;68.90;;;;;;4997498;28;20363;-54
2021/12/28 00:33:31;;;;;;;12.30;4.13;;;10.70;69.10;;;;;;5001693;28;20470;-54
2021/12/28 00:35:57;;;;;;;10.68;4.45;;;10.70;69.20;;;;;;5001487;28;20029;-57
2021/12/28 00:38:25;;;;;;;8.25;4.07;;;10.70;69.30;;;;;;4999339;28;20041;-55
2021/12/28 00:40:55;;;;;;;13.73;5.40;;;10.70;69.30;;;;;;4999469;28;20044;-57
2021/12/28 00:43:22;;;;;;;11.75;4.68;;;10.70;69.30;;;;;;4999894;28;20042;-58
2021/12/28 00:45:48;;;;;;;12.32;5.07;;;10.70;69.30;;;;;;4999558;28;20029;-58
2021/12/28 00:48:15;;;;;;;9.90;4.00;;;10.70;69.30;;;;;;4999456;28;20037;-54
2021/12/28 00:50:42;;;;;;;14.55;4.47;;;10.70;69.20;;;;;;5000238;28;20456;-55
2021/12/28 00:53:08;;;;;;;13.07;5.38;;;10.70;69.30;;;;;;4999393;28;20048;-58
2021/12/28 00:55:34;;;;;;;15.95;4.55;;;10.70;69.30;;;;;;5001348;28;20030;-55
2021/12/28 00:58:01;;;;;;;10.93;4.60;;;10.70;69.30;;;;;;4999718;28;20492;-56
2021/12/28 01:00:29;;;;;;;13.38;4.72;;;10.70;69.40;;;;;;4978710;28;20050;-55
2021/12/28 01:03:00;;;;;;;9.63;4.35;;;10.70;69.50;;;;;;4999514;28;20048;-56
2021/12/28 01:05:27;;;;;;;12.25;4.50;;;10.70;69.60;;;;;;4999835;28;20378;-53
2021/12/28 01:07:55;;;;;;;14.30;4.30;;;10.70;69.70;;;;;;4999388;28;20022;-58
2021/12/28 01:10:25;;;;;;;14.50;4.95;;;10.70;69.70;;;;;;4998740;28;20307;-53
2021/12/28 01:12:55;;;;;;;16.42;3.88;;;10.70;69.80;;;;;;4999167;28;20030;-54
2021/12/28 01:15:24;;;;;;;16.80;4.60;;;10.80;69.80;;;;;;4999778;28;20461;-57
2021/12/28 01:17:50;;;;;;;16.20;3.67;;;10.70;69.80;;;;;;4997754;28;20044;-56
2021/12/28 01:20:17;;;;;;;11.65;3.70;;;10.80;69.80;;;;;;4999869;28;20034;-56
2021/12/28 01:22:44;;;;;;;16.13;3.55;;;10.80;69.80;;;;;;5000271;28;20520;-55
2021/12/28 01:25:12;;;;;;;11.73;3.67;;;10.80;69.80;;;;;;4999763;28;20493;-56
2021/12/28 01:27:39;;;;;;;23.52;4.47;;;10.80;69.90;;;;;;4999906;28;20473;-58
2021/12/28 01:30:08;;;;;;;19.15;4.07;;;10.80;69.90;;;;;;4999761;28;20040;-55
2021/12/28 01:32:35;;;;;;;12.50;3.90;;;10.80;70.10;;;;;;4998505;28;20497;-55
2021/12/28 01:35:03;;;;;;;18.58;3.80;;;10.80;70.10;;;;;;4999804;28;20482;-56
2021/12/28 01:37:29;;;;;;;17.90;3.63;;;10.80;70.10;;;;;;4979336;28;20049;-56
2021/12/28 01:39:55;;;;;;;10.32;2.95;;;10.80;70.10;;;;;;4981733;28;20382;-53
2021/12/28 01:42:21;;;;;;;13.55;3.08;;;10.80;70.20;;;;;;4998338;28;20050;-57
2021/12/28 01:44:48;;;;;;;16.00;3.70;;;10.90;70.30;;;;;;4998563;28;20053;-58
2021/12/28 01:47:16;;;;;;;16.98;3.58;;;10.90;70.30;;;;;;4974307;28;20038;-56
2021/12/28 01:49:43;;;;;;;11.95;2.67;;;10.90;70.30;;;;;;4998667;28;20053;-55
2021/12/28 01:52:10;;;;;;;19.73;3.13;;;10.90;70.40;;;;;;4999435;28;20466;-57
2021/12/28 01:54:36;;;;;;;15.63;3.15;;;11.00;70.40;;;;;;4997214;28;20482;-55
2021/12/28 01:57:03;;;;;;;14.93;3.40;;;11.00;70.30;;;;;;4997868;28;20027;-56
2021/12/28 01:59:29;;;;;;;17.13;3.58;;;11.00;70.30;;;;;;4999680;28;20026;-55
2021/12/28 02:01:56;;;;;;;20.98;3.10;;;11.10;70.30;;;;;;4997858;28;20030;-59
2021/12/28 02:04:25;;;;;;;21.30;3.38;;;11.10;70.30;;;;;;4997651;28;20042;-56
2021/12/28 02:06:54;;;;;;;19.30;3.00;;;11.10;70.30;;;;;;4994655;28;20501;-55
2021/12/28 02:09:21;;;;;;;14.25;2.78;;;11.20;70.30;;;;;;4997754;28;20022;-55
2021/12/28 02:11:48;;;;;;;15.88;2.97;;;11.20;70.30;;;;;;4998633;28;20030;-57
2021/12/28 02:14:14;;;;;;;22.70;3.00;;;11.20;70.30;;;;;;4997910;28;20030;-58
2021/12/28 02:16:43;;;;;;;14.00;3.00;;;11.20;70.30;;;;;;4997085;28;20026;-56
2021/12/28 02:19:11;;;;;;;17.38;3.45;;;11.30;70.30;;;;;;4997692;28;20044;-58
2021/12/28 02:21:37;;;;;;;23.20;3.22;;;11.30;70.20;;;;;;4979313;28;20117;-58
2021/12/28 02:24:06;;;;;;;21.05;3.00;;;11.30;70.10;;;;;;4998756;28;20018;-57
2021/12/28 02:26:33;;;;;;;14.07;3.33;;;11.30;70.00;;;;;;4997529;28;20044;-57
2021/12/28 02:29:00;;;;;;;17.33;3.22;;;11.30;69.80;;;;;;4998116;28;20037;-57
2021/12/28 02:31:26;;;;;;;17.70;3.42;;;11.30;69.70;;;;;;4997146;28;20153;-54
2021/12/28 02:33:53;;;;;;;23.05;3.67;;;11.40;69.80;;;;;;4980344;28;20034;-55
2021/12/28 02:36:20;;;;;;;18.40;2.90;;;11.40;69.70;;;;;;5001814;28;20045;-56
2021/12/28 02:38:47;;;;;;;18.55;2.90;;;11.40;69.70;;;;;;4994704;28;20501;-56
2021/12/28 02:41:14;;;;;;;12.65;2.97;;;11.30;69.60;;;;;;5002121;28;20473;-58
2021/12/28 02:43:42;;;;;;;23.83;4.47;;;11.40;69.70;;;;;;4982244;28;20421;-57
2021/12/28 02:46:09;;;;;;;14.00;2.78;;;11.30;69.70;;;;;;5001876;28;20656;-54
2021/12/28 02:48:37;;;;;;;16.33;3.13;;;11.30;69.70;;;;;;5001689;28;20033;-57
2021/12/28 02:51:09;;;;;;;18.50;4.13;;;11.30;69.70;;;;;;5001918;28;20042;-55
2021/12/28 02:53:36;;;;;;;27.73;3.90;;;11.30;69.80;;;;;;5003142;28;20037;-55
2021/12/28 02:56:03;;;;;;;16.88;3.00;;;11.40;69.90;;;;;;4986156;28;20046;-53
2021/12/28 02:58:42;;;;;;;15.07;3.03;;;11.40;70.00;;;;;;5000330;28;20814;-56
2021/12/28 03:01:19;;;;;;;21.42;3.42;;;11.40;70.00;;;;;;4984422;28;20037;-58
2021/12/28 03:03:47;;;;;;;20.67;3.50;;;11.40;70.00;;;;;;5001748;28;20409;-55
2021/12/28 03:06:19;;;;;;;15.93;3.38;;;11.40;70.00;;;;;;5001797;28;20050;-55
2021/12/28 03:08:48;;;;;;;21.52;3.55;;;11.40;70.00;;;;;;4998662;28;20030;-57
2021/12/28 03:11:16;;;;;;;21.50;3.72;;;11.40;70.70;;;;;;5001911;28;20044;-57
2021/12/28 03:13:47;;;;;;;12.63;2.80;;;11.40;70.00;;;;;;5000822;28;20029;-53
2021/12/28 03:16:15;;;;;;;18.58;3.20;;;11.50;70.00;;;;;;5001345;28;20053;-56
2021/12/28 03:18:41;;;;;;;23.27;3.53;;;11.50;70.00;;;;;;5001688;28;20029;-55
2021/12/28 03:21:09;;;;;;;13.52;3.20;;;11.50;70.00;;;;;;5000532;28;20364;-58
2021/12/28 03:23:36;;;;;;;16.08;3.55;;;11.50;70.00;;;;;;5003629;28;20025;-53
2021/12/28 03:26:03;;;;;;;25.15;3.30;;;11.50;70.10;;;;;;5003130;28;20030;-55
2021/12/28 03:28:34;;;;;;;27.13;3.78;;;11.50;70.00;;;;;;5001245;28;20045;-56
2021/12/28 03:31:01;;;;;;;21.48;3.70;;;11.50;70.10;;;;;;4997747;28;20553;-57
2021/12/28 03:33:33;;;;;;;22.00;3.42;;;11.50;70.00;;;;;;5001634;28;20045;-57
2021/12/28 03:35:59;;;;;;;22.50;3.33;;;11.60;70.10;;;;;;4999619;28;20466;-55
2021/12/28 03:38:26;;;;;;;15.90;3.33;;;11.60;70.00;;;;;;5001890;28;20496;-56
2021/12/28 03:40:53;;;;;;;15.10;3.13;;;11.60;70.00;;;;;;5002967;28;20041;-58
2021/12/28 03:43:20;;;;;;;17.85;3.33;;;11.60;70.00;;;;;;5002773;28;20053;-59
2021/12/28 03:45:47;;;;;;;21.98;3.50;;;11.60;69.90;;;;;;5000231;28;20033;-57
2021/12/28 03:48:13;;;;;;;23.63;4.18;;;11.60;70.50;;;;;;4999518;28;20421;-56
2021/12/28 03:50:40;;;;;;;23.33;3.55;;;11.60;69.80;;;;;;5000518;28;20022;-57
2021/12/28 03:53:07;;;;;;;19.70;3.88;;;11.60;69.80;;;;;;5002546;28;20509;-58
2021/12/28 03:55:35;;;;;;;20.98;3.92;;;11.60;69.70;;;;;;5001650;28;20046;-56
2021/12/28 03:58:02;;;;;;;23.00;3.38;;;11.70;69.80;;;;;;5000283;28;20360;-56
2021/12/28 04:00:33;;;;;;;19.58;4.10;;;11.70;69.70;;;;;;5000967;28;20025;-56
2021/12/28 04:02:59;;;;;;;26.10;4.78;;;11.70;69.70;;;;;;5000984;28;20470;-58
2021/12/28 04:05:26;;;;;;;18.98;4.18;;;11.70;69.70;;;;;;5001417;28;20077;-55
2021/12/28 04:07:52;;;;;;;17.75;4.40;;;11.70;69.70;;;;;;4999056;28;20504;-55
2021/12/28 04:10:27;;;;;;;21.08;4.25;;;11.70;69.70;;;;;;4982240;28;20037;-57
2021/12/28 04:12:54;;;;;;;23.40;5.25;;;11.70;70.00;;;;;;5001752;28;20045;-56
2021/12/28 04:15:20;;;;;;;25.77;5.22;;;11.70;69.70;;;;;;4997058;28;20565;-56
2021/12/28 04:17:47;;;;;;;21.88;4.72;;;11.70;69.80;;;;;;4997490;28;20474;-55
2021/12/28 04:20:17;;;;;;;20.35;4.50;;;11.70;69.80;;;;;;4997238;28;20045;-54
2021/12/28 04:22:44;;;;;;;23.48;4.80;;;11.70;69.80;;;;;;5000794;28;20017;-58
2021/12/28 04:25:12;;;;;;;18.40;5.10;;;11.70;69.80;;;;;;5002445;28;20386;-58
2021/12/28 04:27:38;;;;;;;20.50;4.25;;;11.70;69.80;;;;;;4996482;28;20038;-56
2021/12/28 04:30:07;;;;;;;23.33;4.43;;;11.70;69.80;;;;;;5001031;28;20029;-58
2021/12/28 04:32:33;;;;;;;27.50;4.50;;;11.70;69.80;;;;;;4999720;28;20032;-54
2021/12/28 04:35:00;;;;;;;19.17;4.15;;;11.70;69.80;;;;;;4999833;28;20045;-58
2021/12/28 04:37:26;;;;;;;23.90;4.70;;;11.70;69.70;;;;;;4998722;28;20022;-58
2021/12/28 04:39:52;;;;;;;20.75;4.70;;;11.70;69.80;;;;;;4979779;28;20592;-56
2021/12/28 04:42:19;;;;;;;21.33;4.53;;;11.70;69.80;;;;;;5000063;28;20045;-56
2021/12/28 04:44:47;;;;;;;20.38;4.35;;;11.70;69.80;;;;;;5000968;28;20034;-55
2021/12/28 04:47:13;;;;;;;28.10;5.35;;;11.70;69.70;;;;;;4996229;28;20377;-55
2021/12/28 04:49:39;;;;;;;19.13;3.95;;;11.70;69.70;;;;;;4999493;28;20033;-53
2021/12/28 04:52:06;;;;;;;18.45;4.20;;;11.80;69.70;;;;;;4998481;28;20496;-58
2021/12/28 04:54:32;;;;;;;21.25;4.47;;;11.80;69.60;;;;;;5000519;28;20026;-55
2021/12/28 04:56:58;;;;;;;20.67;4.43;;;11.80;69.70;;;;;;4977117;28;20413;-56
2021/12/28 04:59:24;;;;;;;17.20;4.60;;;11.80;69.50;;;;;;4999460;28;20421;-57
2021/12/28 05:01:50;;;;;;;17.08;4.30;;;11.70;69.40;;;;;;4997870;28;20393;-56
2021/12/28 05:04:16;;;;;;;18.80;4.20;;;11.70;69.30;;;;;;4999410;28;20030;-56
2021/12/28 05:06:42;;;;;;;18.20;3.90;;;11.80;69.40;;;;;;4997011;28;20034;-56
2021/12/28 05:09:12;;;;;;;19.58;4.10;;;11.80;69.40;;;;;;4993995;28;20520;-58
2021/12/28 05:11:39;;;;;;;19.70;4.38;;;11.80;69.40;;;;;;4999133;28;20038;-56
2021/12/28 05:14:08;;;;;;;22.17;4.63;;;11.80;69.40;;;;;;5000834;28;20032;-55
2021/12/28 05:16:34;;;;;;;12.95;3.97;;;11.80;69.40;;;;;;4989415;28;20483;-58
2021/12/28 05:19:03;;;;;;;16.95;4.20;;;11.80;69.40;;;;;;4996435;28;20014;-57
2021/12/28 05:21:31;;;;;;;24.10;8.80;;;11.80;69.70;;;;;;4996259;28;20041;-55
2021/12/28 05:23:57;;;;;;;32.35;9.98;;;11.80;69.80;;;;;;4996821;28;20046;-56
2021/12/28 05:26:24;;;;;;;29.50;9.63;;;11.80;70.00;;;;;;4998264;28;20022;-56
2021/12/28 05:28:51;;;;;;;21.20;5.45;;;11.80;70.00;;;;;;5000408;28;20481;-57
2021/12/28 05:31:20;;;;;;;18.15;3.80;;;11.90;69.90;;;;;;4997547;28;20030;-58
2021/12/28 05:33:47;;;;;;;15.63;4.00;;;12.00;69.70;;;;;;4999352;28;20507;-57
2021/12/28 05:36:13;;;;;;;20.30;4.47;;;12.00;69.50;;;;;;4999423;28;20042;-54
2021/12/28 05:38:39;;;;;;;21.63;4.47;;;12.00;69.40;;;;;;4979398;28;20030;-57
2021/12/28 05:41:06;;;;;;;23.52;4.40;;;12.00;69.20;;;;;;5000413;28;20041;-57
2021/12/28 05:43:32;;;;;;;16.33;4.35;;;12.10;69.10;;;;;;5001157;28;20422;-56
2021/12/28 05:45:59;;;;;;;12.13;4.00;;;12.10;68.90;;;;;;4997817;28;20101;-56
2021/12/28 05:48:25;;;;;;;17.23;3.92;;;12.10;68.80;;;;;;4995093;28;20501;-55
2021/12/28 05:50:52;;;;;;;49.20;20.35;;;12.10;68.80;;;;;;4997596;28;20482;-58
2021/12/28 05:53:18;;;;;;;28.38;7.97;;;12.10;68.70;;;;;;4998199;28;20064;-57
2021/12/28 05:55:44;;;;;;;21.77;5.78;;;12.10;68.60;;;;;;4999188;28;20490;-56
2021/12/28 05:58:11;;;;;;;14.07;3.75;;;12.10;68.60;;;;;;4999619;28;20038;-55
2021/12/28 06:00:37;;;;;;;17.23;3.30;;;12.10;68.50;;;;;;4994355;28;20026;-58
2021/12/28 06:03:03;;;;;;;11.95;3.35;;;12.10;68.50;;;;;;4972960;28;20037;-57
2021/12/28 06:05:30;;;;;;;9.88;3.00;;;12.10;68.50;;;;;;4996175;28;20041;-58
2021/12/28 06:07:56;;;;;;;15.00;3.25;;;12.00;69.10;;;;;;4999467;28;20022;-55
2021/12/28 06:10:22;;;;;;;11.30;3.35;;;12.10;68.50;;;;;;5000443;28;20497;-56
2021/12/28 06:12:49;;;;;;;18.40;4.88;;;12.00;68.50;;;;;;5002664;28;20033;-54
2021/12/28 06:15:16;;;;;;;16.52;4.05;;;12.10;68.50;;;;;;5000877;28;20046;-56
2021/12/28 06:17:42;;;;;;;12.13;3.20;;;12.00;68.50;;;;;;5000423;28;20033;-56
2021/12/28 06:20:09;;;;;;;9.98;2.40;;;12.00;68.50;;;;;;5000116;28;20042;-58
2021/12/28 06:22:36;;;;;;;10.05;2.65;;;12.00;68.60;;;;;;5000991;28;20018;-57
2021/12/28 06:25:03;;;;;;;10.40;2.35;;;12.00;68.60;;;;;;4997430;28;20394;-57
2021/12/28 06:27:30;;;;;;;38.85;16.05;;;12.00;68.70;;;;;;4999829;28;20045;-57
2021/12/28 06:29:56;;;;;;;16.50;6.10;;;12.00;68.80;;;;;;5004009;28;20073;-58
2021/12/28 06:32:22;;;;;;;11.77;3.38;;;12.00;68.80;;;;;;4995236;28;20038;-56
2021/12/28 06:34:48;;;;;;;8.30;2.38;;;12.00;68.90;;;;;;4985058;28;20474;-58
2021/12/28 06:37:15;;;;;;;8.30;2.30;;;11.90;68.80;;;;;;4975698;28;20041;-58
2021/12/28 06:39:41;;;;;;;6.35;1.80;;;12.00;69.00;;;;;;4979374;28;20026;-56
2021/12/28 06:42:07;;;;;;;8.73;1.88;;;12.00;69.00;;;;;;4984741;28;20021;-58
2021/12/28 06:44:33;;;;;;;8.05;1.52;;;12.00;69.10;;;;;;4987462;28;20479;-58
2021/12/28 06:46:59;;;;;;;8.15;1.60;;;12.00;69.20;;;;;;4986113;28;20078;-58
2021/12/28 06:49:26;;;;;;;4.90;1.40;;;12.00;69.20;;;;;;4985798;28;20031;-57
2021/12/28 06:51:52;;;;;;;9.40;1.60;;;12.00;69.20;;;;;;4987290;28;20053;-57
2021/12/28 06:54:18;;;;;;;3.85;1.33;;;11.90;69.20;;;;;;4980679;28;20038;-56
2021/12/28 06:56:44;;;;;;;4.25;1.02;;;12.00;69.30;;;;;;4984300;28;20030;-54
2021/12/28 06:59:11;;;;;;;6.18;1.60;;;12.00;69.40;;;;;;4982784;28;20088;-58
2021/12/28 07:01:37;;;;;;;8.20;1.55;;;12.00;69.30;;;;;;4983840;28;20034;-56
2021/12/28 07:04:03;;;;;;;5.05;1.85;;;12.00;69.40;;;;;;4981438;28;20026;-56
2021/12/28 07:06:30;;;;;;;7.38;1.75;;;11.90;69.40;;;;;;4991570;28;20033;-57
2021/12/28 07:08:56;;;;;;;5.97;1.40;;;12.00;69.40;;;;;;4987590;28;20034;-59
2021/12/28 07:11:22;;;;;;;10.63;1.20;;;12.00;69.40;;;;;;4963820;28;20042;-56
2021/12/28 07:13:48;;;;;;;66.03;24.90;;;12.00;69.40;;;;;;4985477;28;20029;-58
2021/12/28 07:16:15;;;;;;;14.00;5.88;;;11.90;69.40;;;;;;4981425;28;20041;-56
2021/12/28 07:18:41;;;;;;;10.10;2.95;;;11.90;69.50;;;;;;4992768;28;20029;-57
2021/12/28 07:21:07;;;;;;;9.95;2.00;;;12.00;69.50;;;;;;4986196;28;20027;-55
2021/12/28 07:23:34;;;;;;;8.55;1.83;;;12.00;69.50;;;;;;4995631;28;20476;-57
2021/12/28 07:26:00;;;;;;;7.00;1.85;;;12.00;69.50;;;;;;4991769;28;20030;-58
2021/12/28 07:28:27;;;;;;;5.85;1.60;;;12.00;69.80;;;;;;4979209;28;20034;-58
2021/12/28 07:30:53;;;;;;;9.77;1.63;;;12.00;69.80;;;;;;4978924;28;20034;-55
2021/12/28 07:33:20;;;;;;;2.72;1.30;;;12.10;69.60;;;;;;4981718;28;20382;-56
2021/12/28 07:35:47;;;;;;;6.07;1.40;;;12.10;69.60;;;;;;4979992;28;20108;-56
2021/12/28 07:52:43;;;;;;;6.28;1.90;;;12.10;68.20;;;;;;6028686;23;20059;-55
2021/12/28 07:55:11;;;;;;;7.50;1.67;;;12.10;68.20;;;;;;4960190;28;20053;-54
2021/12/28 07:57:38;;;;;;;8.15;2.00;;;12.00;68.00;;;;;;4960746;28;20030;-54
2021/12/28 08:00:09;;;;;;;5.70;1.40;;;12.00;68.00;;;;;;4963533;28;20034;-54
2021/12/28 08:02:35;;;;;;;7.90;1.40;;;12.00;68.10;;;;;;4955514;28;20026;-53
2021/12/28 08:05:01;;;;;;;4.93;1.30;;;12.00;68.20;;;;;;4956858;28;20151;-53
2021/12/28 08:07:27;;;;;;;4.45;1.50;;;11.90;68.20;;;;;;4959784;28;20043;-54
2021/12/28 08:09:54;;;;;;;3.90;1.58;;;11.90;68.20;;;;;;4961882;28;20019;-56
2021/12/28 08:12:20;;;;;;;4.40;1.58;;;11.90;68.30;;;;;;4954229;28;20550;-54
2021/12/28 08:14:46;;;;;;;5.50;2.10;;;11.90;68.40;;;;;;4952080;28;20023;-53
2021/12/28 08:17:12;;;;;;;5.50;1.75;;;11.80;68.40;;;;;;4954375;28;20034;-57
2021/12/28 08:19:39;;;;;;;4.60;1.65;;;11.80;68.60;;;;;;4964298;28;20499;-54
2021/12/28 08:22:05;;;;;;;4.47;1.58;;;11.80;68.80;;;;;;4962765;28;20035;-53
2021/12/28 08:24:33;;;;;;;2.97;1.50;;;11.80;68.90;;;;;;4958931;28;20483;-53
2021/12/28 08:27:00;;;;;;;5.78;1.65;;;11.80;69.10;;;;;;4961353;28;20047;-56
2021/12/28 08:29:27;;;;;;;4.70;1.35;;;11.80;69.30;;;;;;4956575;28;20050;-56
2021/12/28 08:31:53;;;;;;;3.55;1.52;;;11.80;69.50;;;;;;4959712;28;20034;-55
2021/12/28 08:34:20;;;;;;;3.10;1.52;;;11.80;69.50;;;;;;4962959;28;20043;-54
2021/12/28 08:36:46;;;;;;;2.83;1.25;;;11.90;69.50;;;;;;4961216;28;20640;-55
2021/12/28 08:39:12;;;;;;;4.20;1.25;;;11.90;69.50;;;;;;4958944;28;20034;-54
2021/12/28 08:41:38;;;;;;;3.25;1.10;;;11.90;69.50;;;;;;4959932;28;20509;-54
2021/12/28 08:44:05;;;;;;;3.10;1.02;;;11.90;69.50;;;;;;4964541;28;20422;-54
2021/12/28 08:46:31;;;;;;;1.65;1.00;;;12.00;69.60;;;;;;4955599;28;20035;-54
2021/12/28 08:48:57;;;;;;;3.80;0.93;;;12.00;69.50;;;;;;4962953;28;20380;-51
2021/12/28 08:51:24;;;;;;;2.25;1.20;;;12.00;69.30;;;;;;4960462;28;20023;-56
2021/12/28 08:53:51;;;;;;;4.93;1.25;;;12.00;69.30;;;;;;4984417;28;20064;-54
2021/12/28 08:56:17;;;;;;;2.53;1.02;;;12.00;69.30;;;;;;5006672;28;20490;-54
2021/12/28 08:58:43;;;;;;;5.30;1.02;;;12.00;69.40;;;;;;5008669;28;20036;-54
2021/12/28 09:01:10;;;;;;;4.57;1.10;;;12.00;69.50;;;;;;4981793;28;20044;-55
2021/12/28 09:03:36;;;;;;;1.42;0.90;;;12.10;69.70;;;;;;5006553;28;20017;-57
2021/12/28 09:06:05;;;;;;;4.38;0.98;;;12.10;70.00;;;;;;5002235;28;20075;-57
2021/12/28 09:08:32;;;;;;;1.88;0.80;;;12.10;69.60;;;;;;4985441;28;20057;-53
2021/12/28 09:10:59;;;;;;;2.83;0.75;;;12.20;69.60;;;;;;5006300;28;20609;-54
2021/12/28 09:13:25;;;;;;;3.35;0.80;;;12.20;69.50;;;;;;4999245;28;20485;-56
2021/12/28 09:15:51;;;;;;;1.63;0.70;;;12.20;69.40;;;;;;4997382;28;20041;-55
2021/12/28 09:18:18;;;;;;;1.05;0.45;;;12.20;69.30;;;;;;5003152;28;20049;-57
2021/12/28 09:20:45;;;;;;;1.85;0.73;;;12.30;69.30;;;;;;5004217;28;20021;-54
2021/12/28 09:23:12;;;;;;;1.88;0.82;;;12.30;69.20;;;;;;4999695;28;20022;-53
2021/12/28 09:25:39;;;;;;;5.43;2.15;;;12.30;69.10;;;;;;5012633;28;20602;-53
2021/12/28 09:28:08;;;;;;;3.55;1.52;;;12.30;69.00;;;;;;4997109;28;20621;-56
2021/12/28 09:30:35;;;;;;;4.03;1.50;;;12.30;69.00;;;;;;4997394;28;20046;-56
2021/12/28 09:33:01;;;;;;;3.55;1.70;;;12.40;69.10;;;;;;4997330;28;20021;-56
2021/12/28 09:35:28;;;;;;;2.97;0.93;;;12.40;69.10;;;;;;5004971;28;20052;-55
2021/12/28 09:37:54;;;;;;;1.20;0.80;;;12.40;69.00;;;;;;4999526;28;20382;-55
2021/12/28 09:40:20;;;;;;;1.30;0.63;;;12.50;69.00;;;;;;4998970;28;20037;-55
2021/12/28 09:42:46;;;;;;;2.72;0.68;;;12.50;68.90;;;;;;5000393;28;20029;-55
2021/12/28 09:45:14;;;;;;;2.95;0.60;;;12.50;68.90;;;;;;5003686;28;20370;-55
2021/12/28 09:47:42;;;;;;;2.10;0.50;;;12.50;68.80;;;;;;5007161;28;20497;-54
2021/12/28 09:50:11;;;;;;;1.92;0.50;;;12.60;68.90;;;;;;5010129;28;20029;-55
2021/12/28 09:52:39;;;;;;;1.30;0.55;;;12.60;68.70;;;;;;4981082;28;20509;-57
2021/12/28 09:55:07;;;;;;;2.92;0.80;;;12.60;68.60;;;;;;5014716;28;20044;-55
2021/12/28 09:57:33;;;;;;;2.35;0.70;;;12.60;68.60;;;;;;5005425;28;20034;-56
2021/12/28 09:59:59;;;;;;;1.00;0.55;;;12.60;68.50;;;;;;5006203;28;20033;-53
2021/12/28 10:02:26;;;;;;;1.65;0.90;;;12.70;68.50;;;;;;5003788;28;20380;-54
2021/12/28 10:05:07;;;;;;;2.55;0.95;;;12.70;68.50;;;;;;5009322;28;20028;-57
2021/12/28 10:07:36;;;;;;;1.35;0.70;;;12.70;68.30;;;;;;5004289;28;20021;-56
2021/12/28 10:10:06;;;;;;;3.40;1.10;;;12.70;68.30;;;;;;5009542;28;20324;-54
2021/12/28 10:12:42;;;;;;;1.02;0.68;;;12.70;68.30;;;;;;5007981;28;20542;-54
2021/12/28 10:15:15;;;;;;;1.48;0.70;;;12.70;68.20;;;;;;5009014;28;20026;-52
2021/12/28 10:17:44;;;;;;;2.78;0.90;;;12.80;68.20;;;;;;5005740;28;20409;-52
2021/12/28 10:20:15;;;;;;;1.63;0.70;;;12.80;68.90;;;;;;5001340;28;20025;-56
2021/12/28 10:22:48;;;;;;;2.80;1.00;;;12.80;68.30;;;;;;5003138;28;20389;-55
2021/12/28 10:25:37;;;;;;;2.55;0.85;;;12.80;68.20;;;;;;5002797;28;20074;-56
2021/12/28 10:28:12;;;;;;;1.75;0.90;;;12.80;68.10;;;;;;5006715;28;20033;-55
2021/12/28 10:30:58;;;;;;;2.80;0.70;;;12.80;68.10;;;;;;4987905;28;20033;-56
2021/12/28 10:33:27;;;;;;;3.20;1.25;;;12.80;68.10;;;;;;5007838;28;20044;-56
2021/12/28 10:35:58;;;;;;;1.88;0.85;;;12.80;68.10;;;;;;5004774;28;20038;-54
2021/12/28 10:38:31;;;;;;;2.80;0.80;;;12.80;68.00;;;;;;5005232;28;20374;-55
2021/12/28 10:41:08;;;;;;;2.92;1.00;;;12.90;68.10;;;;;;5006491;28;20065;-55
2021/12/28 10:43:37;;;;;;;3.45;1.00;;;12.80;68.00;;;;;;5002868;28;20038;-53
2021/12/28 10:46:11;;;;;;;2.75;1.02;;;12.80;68.10;;;;;;5009913;28;20027;-54
2021/12/28 10:48:42;;;;;;;1.52;1.13;;;12.80;68.00;;;;;;5002372;28;20473;-57
2021/12/28 10:51:13;;;;;;;2.42;1.25;;;12.90;68.10;;;;;;5002890;28;20382;-55
2021/12/28 10:53:49;;;;;;;1.90;0.90;;;12.90;68.10;;;;;;5005793;28;20045;-56
2021/12/28 10:56:15;;;;;;;1.90;1.00;;;12.90;68.10;;;;;;5002582;28;20042;-57
2021/12/28 10:58:45;;;;;;;2.28;1.08;;;12.90;68.10;;;;;;4987480;28;20030;-54
2021/12/28 11:01:26;;;;;;;2.40;0.98;;;12.90;68.20;;;;;;4989656;28;20398;-55
2021/12/28 11:03:59;;;;;;;1.75;1.05;;;12.90;68.20;;;;;;5003605;28;20022;-55
2021/12/28 11:06:29;;;;;;;2.42;1.00;;;12.90;68.20;;;;;;5003857;28;20466;-53
2021/12/28 11:09:16;;;;;;;1.83;0.98;;;12.90;68.10;;;;;;5009355;28;20481;-57
2021/12/28 11:11:42;;;;;;;4.47;1.27;;;13.00;68.30;;;;;;5007306;28;20037;-52
2021/12/28 11:14:12;;;;;;;1.95;1.20;;;13.00;68.30;;;;;;5005338;28;20034;-55
2021/12/28 11:16:39;;;;;;;3.13;1.20;;;13.00;68.50;;;;;;5006545;28;20462;-54
2021/12/28 11:19:07;;;;;;;2.55;1.00;;;13.00;68.60;;;;;;5001334;28;20093;-55
2021/12/28 11:21:36;;;;;;;2.78;1.00;;;13.10;68.90;;;;;;5008455;28;20512;-56
2021/12/28 11:24:06;;;;;;;2.08;1.00;;;13.10;69.00;;;;;;5007336;28;20030;-53
2021/12/28 11:26:42;;;;;;;3.75;1.40;;;13.20;69.20;;;;;;5002782;28;20034;-56
2021/12/28 11:29:13;;;;;;;1.17;0.90;;;13.30;69.40;;;;;;5003667;28;20046;-56
2021/12/28 11:31:51;;;;;;;1.35;0.70;;;13.30;69.30;;;;;;5003676;28;20034;-54
2021/12/28 11:34:31;;;;;;;3.60;0.93;;;13.40;69.10;;;;;;5004687;28;20493;-54
2021/12/28 11:37:12;;;;;;;2.85;0.80;;;13.50;69.00;;;;;;4987536;28;20048;-56
2021/12/28 11:39:45;;;;;;;2.40;0.90;;;13.50;68.70;;;;;;5001853;28;20042;-55
2021/12/28 11:42:13;;;;;;;1.58;0.65;;;13.60;68.70;;;;;;5006231;28;20528;-51
2021/12/28 11:44:39;;;;;;;0.73;0.47;;;13.60;68.80;;;;;;5003921;28;20025;-56
2021/12/28 11:47:08;;;;;;;3.28;0.75;;;13.70;68.70;;;;;;5005996;28;20371;-55
2021/12/28 11:49:36;;;;;;;1.83;0.70;;;13.70;68.60;;;;;;5010313;28;20026;-53
2021/12/28 11:52:06;;;;;;;1.08;0.68;;;13.70;68.50;;;;;;5010508;28;20041;-54
2021/12/28 11:54:36;;;;;;;1.27;0.90;;;13.80;68.30;;;;;;5006270;28;20042;-54
2021/12/28 11:57:08;;;;;;;1.92;1.10;;;13.80;68.10;;;;;;5008884;28;20036;-52
2021/12/28 11:59:35;;;;;;;2.85;1.00;;;13.80;68.00;;;;;;5000871;28;20026;-55
2021/12/28 12:02:05;;;;;;;2.15;1.10;;;13.90;67.90;;;;;;5000916;28;20025;-56
2021/12/28 12:04:34;;;;;;;1.80;1.00;;;13.90;67.70;;;;;;5009016;28;20033;-55
2021/12/28 12:07:14;;;;;;;2.63;0.90;;;13.90;67.60;;;;;;5003408;28;20045;-55
2021/12/28 12:09:49;;;;;;;0.60;0.60;;;13.90;67.60;;;;;;5003020;28;20036;-56
2021/12/28 12:12:17;;;;;;;3.72;0.80;;;13.90;67.70;;;;;;4989248;28;20042;-53
2021/12/28 12:14:58;;;;;;;0.95;0.38;;;13.90;67.70;;;;;;5002185;28;20037;-56
2021/12/28 12:17:30;;;;;;;0.80;0.40;;;13.90;67.50;;;;;;5002147;28;21018;-55
2021/12/28 12:20:00;;;;;;;1.00;0.50;;;13.90;67.50;;;;;;5010682;28;20034;-55
2021/12/28 12:22:32;;;;;;;0.55;0.40;;;13.90;67.40;;;;;;5012573;28;20528;-53
2021/12/28 12:25:12;;;;;;;0.60;0.30;;;13.90;67.40;;;;;;5002871;28;20045;-55
2021/12/28 12:27:49;;;;;;;1.02;0.30;;;13.90;67.40;;;;;;4988851;28;20053;-56
2021/12/28 12:30:18;;;;;;;1.45;0.43;;;13.90;67.30;;;;;;5003052;28;20022;-56
2021/12/28 12:33:06;;;;;;;0.80;0.35;;;13.90;67.20;;;;;;5002620;28;20420;-55
2021/12/28 12:35:32;;;;;;;4.50;0.40;;;13.90;67.20;;;;;;5004427;28;20030;-55
2021/12/28 12:38:00;;;;;;;0.95;0.30;;;13.90;67.10;;;;;;5004015;28;20541;-55
2021/12/28 12:40:51;;;;;;;0.68;0.40;;;13.90;67.20;;;;;;5000207;28;20037;-54
2021/12/28 12:43:18;;;;;;;1.05;0.28;;;13.90;67.30;;;;;;5001859;28;20038;-57
2021/12/28 12:45:54;;;;;;;0.47;0.28;;;13.90;67.10;;;;;;5005577;28;21030;-56
2021/12/28 12:48:36;;;;;;;2.33;0.28;;;13.90;67.00;;;;;;5006740;28;20435;-53
2021/12/28 12:51:26;;;;;;;0.85;0.20;;;13.90;66.70;;;;;;5004159;28;20390;-57
2021/12/28 12:53:59;;;;;;;0.30;0.30;;;13.80;66.80;;;;;;4973414;28;20041;-57
2021/12/28 12:56:30;;;;;;;1.55;0.20;;;13.80;66.60;;;;;;5005219;28;20053;-57
2021/12/28 12:58:59;;;;;;;0.45;0.25;;;13.80;66.60;;;;;;5003170;28;20018;-57
2021/12/28 13:01:33;;;;;;;0.50;0.30;;;13.80;66.80;;;;;;5003484;28;20030;-57
2021/12/28 13:04:01;;;;;;;0.77;0.40;;;13.80;66.90;;;;;;5007067;28;20052;-57